Time;durP1;ratioP1;P1;durP2;ratioP2;P2;SDS_P1;SDS_P2;PMS_P1;PMS_P2;Temp;Humidity;BMP_temperature;BMP_pressure;BME280_temperature;BME280_humidity;BME280_pressure;Samples;Min_cycle;Max_cycle;Signal;HPM_P1;HPM_P2
2023/05/08 00:01:57;;;;;;;1.33;1.23;;;12.10;99.90;;;;;;5095808;28;20054;-76
2023/05/08 00:04:23;;;;;;;1.45;1.27;;;12.00;99.90;;;;;;5095703;28;20052;-77
2023/05/08 00:06:50;;;;;;;;;;;12.10;99.90;;;;;;5095952;28;20564;-77
2023/05/08 00:09:16;;;;;;;0.63;0.63;;;12.10;99.90;;;;;;5095566;28;19923;-75
2023/05/08 00:11:42;;;;;;;0.77;0.77;;;11.80;99.90;;;;;;5095385;28;20050;-74
2023/05/08 00:14:07;;;;;;;1.10;0.75;;;11.80;99.90;;;;;;5095269;28;20482;-77
2023/05/08 00:16:33;;;;;;;;;;;12.00;99.90;;;;;;5095895;28;20052;-73
2023/05/08 00:18:59;;;;;;;0.40;0.40;;;11.80;99.90;;;;;;5095307;28;20368;-74
2023/05/08 00:21:25;;;;;;;1.42;1.33;;;11.90;99.90;;;;;;5095317;28;20079;-76
2023/05/08 00:23:51;;;;;;;;;;;11.60;99.90;;;;;;5095616;28;20135;-76
2023/05/08 00:26:16;;;;;;;0.77;0.77;;;11.80;99.90;;;;;;5095148;28;19926;-79
2023/05/08 00:28:42;;;;;;;1.23;0.93;;;11.70;99.90;;;;;;5094907;28;20047;-76
2023/05/08 00:31:08;;;;;;;0.57;0.57;;;11.60;99.90;;;;;;5093952;28;20044;-77
2023/05/08 00:33:33;;;;;;;0.52;0.52;;;11.70;99.90;;;;;;5095084;28;20051;-76
2023/05/08 00:36:00;;;;;;;;;;;11.80;99.90;;;;;;5095395;28;20048;-78
2023/05/08 00:38:26;;;;;;;1.02;0.98;;;11.80;99.90;;;;;;5094984;28;19924;-77
2023/05/08 00:40:51;;;;;;;1.02;1.00;;;11.80;99.90;;;;;;5094887;28;20122;-77
2023/05/08 00:43:18;;;;;;;0.82;0.63;;;11.50;99.90;;;;;;5094725;28;20044;-75
2023/05/08 00:45:44;;;;;;;0.75;0.75;;;11.30;99.90;;;;;;5094924;28;20127;-75
2023/05/08 00:48:10;;;;;;;1.67;1.58;;;11.60;99.90;;;;;;5094761;28;20040;-72
2023/05/08 00:50:36;;;;;;;0.45;0.45;;;11.70;99.90;;;;;;5094896;28;20484;-77
2023/05/08 00:53:03;;;;;;;;;;;11.60;99.90;;;;;;5095089;28;20048;-77
2023/05/08 00:55:30;;;;;;;0.55;0.55;;;11.40;99.90;;;;;;5094406;28;19920;-75
2023/05/08 00:57:56;;;;;;;0.68;0.68;;;11.40;99.90;;;;;;5094441;28;20083;-76
2023/05/08 01:00:22;;;;;;;0.47;0.47;;;11.20;99.90;;;;;;5094645;28;20095;-77
2023/05/08 01:02:48;;;;;;;0.45;0.45;;;11.00;99.90;;;;;;5094645;28;20052;-83
2023/05/08 01:05:13;;;;;;;1.58;1.25;;;11.10;99.90;;;;;;5094651;28;20109;-76
2023/05/08 01:07:39;;;;;;;0.68;0.68;;;11.00;99.90;;;;;;5094678;28;20472;-75
2023/05/08 01:10:06;;;;;;;1.30;1.20;;;11.00;99.90;;;;;;5094392;28;20047;-77
2023/05/08 01:12:54;;;;;;;1.17;1.08;;;10.90;99.90;;;;;;5094246;28;20048;-77
2023/05/08 01:15:31;;;;;;;5.63;1.20;;;11.00;99.90;;;;;;5088365;28;20143;-78
2023/05/08 01:18:15;;;;;;;;;;;11.00;99.90;;;;;;5094768;28;20046;-81
2023/05/08 01:21:17;;;;;;;0.88;0.82;;;11.10;99.90;;;;;;5094133;28;19963;-80
2023/05/08 01:24:01;;;;;;;5.22;1.50;;;11.10;99.90;;;;;;5084830;28;20064;-76
2023/05/08 01:26:26;;;;;;;1.15;1.10;;;10.90;99.90;;;;;;5094020;28;20048;-80
2023/05/08 01:29:14;;;;;;;1.65;0.90;;;11.10;99.90;;;;;;5093880;28;20152;-79
2023/05/08 01:32:18;;;;;;;1.45;1.08;;;10.80;99.90;;;;;;5094193;28;20164;-81
2023/05/08 01:35:05;;;;;;;1.08;1.08;;;10.60;99.90;;;;;;5093960;28;20109;-80
2023/05/08 01:37:44;;;;;;;0.93;0.93;;;10.80;99.90;;;;;;5093717;28;20040;-80
2023/05/08 01:40:14;;;;;;;1.33;1.23;;;10.60;99.90;;;;;;5093892;28;20040;-77
2023/05/08 01:42:40;;;;;;;0.80;0.80;;;10.60;99.90;;;;;;5092746;28;20484;-80
2023/05/08 01:45:28;;;;;;;2.40;2.05;;;11.10;99.90;;;;;;5093984;28;20134;-77
2023/05/08 01:48:03;;;;;;;0.82;0.82;;;10.40;99.90;;;;;;5093511;28;20545;-79
2023/05/08 01:50:43;;;;;;;0.75;0.75;;;10.70;99.90;;;;;;5093236;28;20084;-79
2023/05/08 01:53:44;;;;;;;1.65;1.48;;;10.50;99.90;;;;;;5093587;28;20143;-80
2023/05/08 01:56:13;;;;;;;1.52;1.35;;;10.40;99.90;;;;;;5078692;28;20055;-78
2023/05/08 01:58:40;;;;;;;1.15;1.02;;;10.30;99.90;;;;;;5093482;28;20040;-82
2023/05/08 02:01:07;;;;;;;0.68;0.68;;;10.50;99.90;;;;;;5093377;28;20091;-81
2023/05/08 02:03:35;;;;;;;0.57;0.57;;;10.60;99.90;;;;;;5093340;28;20040;-80
2023/05/08 02:06:01;;;;;;;2.25;1.23;;;10.40;99.90;;;;;;5093200;28;20048;-80
2023/05/08 02:08:29;;;;;;;1.20;0.93;;;10.70;99.90;;;;;;5093119;28;20404;-80
2023/05/08 02:10:57;;;;;;;0.57;0.57;;;10.40;99.90;;;;;;5092993;28;20048;-79
2023/05/08 02:13:24;;;;;;;0.93;0.85;;;10.40;99.90;;;;;;5093169;28;20056;-79
2023/05/08 02:15:53;;;;;;;1.35;1.25;;;10.60;99.90;;;;;;5092110;28;20047;-80
2023/05/08 02:18:22;;;;;;;0.47;0.47;;;10.30;99.90;;;;;;5093163;28;20058;-80
2023/05/08 02:20:53;;;;;;;0.93;0.82;;;10.50;99.90;;;;;;5092953;28;20445;-81
2023/05/08 02:23:21;;;;;;;0.85;0.52;;;10.40;99.90;;;;;;5092836;28;20135;-82
2023/05/08 02:25:48;;;;;;;1.60;0.95;;;10.30;99.90;;;;;;5093030;28;20056;-79
2023/05/08 02:28:16;;;;;;;0.70;0.70;;;10.20;99.90;;;;;;5092861;28;20408;-79
2023/05/08 02:30:43;;;;;;;0.90;0.45;;;10.10;99.90;;;;;;5092931;28;20056;-79
2023/05/08 02:33:11;;;;;;;0.75;0.75;;;10.20;99.90;;;;;;5092756;28;20044;-79
2023/05/08 02:35:39;;;;;;;1.02;0.93;;;9.80;99.90;;;;;;5092696;28;20048;-78
2023/05/08 02:38:09;;;;;;;1.70;0.95;;;9.90;99.90;;;;;;5092602;28;20126;-80
2023/05/08 02:40:37;;;;;;;1.33;1.23;;;10.00;99.90;;;;;;5092861;28;20094;-78
2023/05/08 02:43:04;;;;;;;1.15;0.93;;;10.10;99.90;;;;;;5092663;28;20048;-79
2023/05/08 02:45:40;;;;;;;0.93;0.93;;;9.90;99.90;;;;;;5092600;28;20126;-80
2023/05/08 02:48:14;;;;;;;1.30;1.20;;;9.90;99.90;;;;;;5092473;28;20040;-80
2023/05/08 02:51:09;;;;;;;0.70;0.70;;;9.80;99.90;;;;;;5092403;28;20047;-77
2023/05/08 02:53:41;;;;;;;0.90;0.90;;;10.10;99.90;;;;;;5092536;28;20051;-77
2023/05/08 02:56:37;;;;;;;1.20;1.10;;;9.90;99.90;;;;;;5092533;28;20555;-76
2023/05/08 02:59:06;;;;;;;3.85;1.05;;;9.60;99.90;;;;;;5092386;28;20052;-79
2023/05/08 03:01:58;;;;;;;2.30;1.48;;;10.10;99.90;;;;;;5091937;28;20048;-80
2023/05/08 03:04:38;;;;;;;0.95;0.80;;;10.10;99.90;;;;;;5092443;28;20056;-79
2023/05/08 03:07:05;;;;;;;1.08;0.98;;;9.80;99.90;;;;;;5092262;28;20052;-79
2023/05/08 03:09:40;;;;;;;0.40;0.40;;;9.80;99.90;;;;;;5092084;28;20051;-78
2023/05/08 03:12:13;;;;;;;2.35;1.65;;;9.60;99.90;;;;;;5092340;28;20130;-79
2023/05/08 03:14:44;;;;;;;0.68;0.68;;;10.00;99.90;;;;;;5092294;28;20044;-81
2023/05/08 03:17:15;;;;;;;1.60;1.35;;;9.70;99.90;;;;;;5092204;28;20049;-78
2023/05/08 03:19:45;;;;;;;1.27;1.13;;;9.70;99.90;;;;;;5091994;28;20036;-80
2023/05/08 03:22:14;;;;;;;0.90;0.90;;;9.70;99.90;;;;;;5092041;28;20557;-79
2023/05/08 03:24:43;;;;;;;1.50;1.08;;;10.40;99.90;;;;;;5092220;28;20058;-78
2023/05/08 03:27:09;;;;;;;1.00;1.00;;;9.70;99.90;;;;;;5091983;28;20091;-79
2023/05/08 03:29:37;;;;;;;0.88;0.88;;;9.90;99.90;;;;;;5090738;28;20447;-79
2023/05/08 03:32:03;;;;;;;0.80;0.73;;;10.10;99.90;;;;;;5091954;28;20107;-78
2023/05/08 03:34:29;;;;;;;;;;;9.70;99.90;;;;;;5092275;28;20079;-80
2023/05/08 03:36:55;;;;;;;0.90;0.85;;;9.50;99.90;;;;;;5092056;28;20458;-79
2023/05/08 03:39:21;;;;;;;0.73;0.73;;;9.60;99.90;;;;;;5090978;28;20106;-79
2023/05/08 03:41:48;;;;;;;0.93;0.93;;;9.60;99.90;;;;;;5091877;28;20044;-80
2023/05/08 03:44:15;;;;;;;0.88;0.88;;;9.60;99.90;;;;;;5091809;28;20056;-78
2023/05/08 03:46:41;;;;;;;1.48;0.90;;;10.00;99.90;;;;;;5091813;28;20440;-79
2023/05/08 03:49:08;;;;;;;3.03;1.35;;;9.80;99.90;;;;;;5091600;28;20127;-77
2023/05/08 03:51:38;;;;;;;1.13;1.02;;;9.50;99.90;;;;;;5091872;28;20063;-79
2023/05/08 03:54:03;;;;;;;0.70;0.70;;;9.80;99.90;;;;;;5091865;28;20077;-78
2023/05/08 03:56:29;;;;;;;1.75;1.20;;;9.60;99.90;;;;;;5091494;28;20177;-77
2023/05/08 03:59:20;;;;;;;0.43;0.43;;;9.60;99.90;;;;;;5091763;28;20079;-79
2023/05/08 04:02:13;;;;;;;1.30;1.15;;;9.30;99.90;;;;;;5091620;28;20438;-79
2023/05/08 04:04:40;;;;;;;0.55;0.55;;;9.60;99.90;;;;;;5083962;28;20052;-79
2023/05/08 04:07:27;;;;;;;0.73;0.73;;;9.70;99.90;;;;;;5091579;28;20078;-79
2023/05/08 04:09:59;;;;;;;0.60;0.60;;;9.40;99.90;;;;;;5091552;28;20557;-79
2023/05/08 04:12:34;;;;;;;0.98;0.90;;;9.60;99.90;;;;;;5091953;28;20053;-78
2023/05/08 04:15:07;;;;;;;1.08;1.00;;;9.60;99.90;;;;;;5095548;28;20050;-79
2023/05/08 04:17:41;;;;;;;4.53;1.65;;;9.80;99.90;;;;;;5095388;28;20048;-79
2023/05/08 04:20:11;;;;;;;1.33;1.23;;;9.70;99.90;;;;;;5095317;28;20058;-78
2023/05/08 04:22:38;;;;;;;1.17;1.02;;;9.50;99.90;;;;;;5095183;28;20051;-78
2023/05/08 04:25:06;;;;;;;1.38;1.27;;;9.60;99.90;;;;;;5095383;28;20044;-79
2023/05/08 04:27:33;;;;;;;1.60;1.50;;;9.80;99.90;;;;;;5095147;28;20483;-80
2023/05/08 04:30:00;;;;;;;1.20;0.85;;;9.30;99.90;;;;;;5095074;28;20048;-79
2023/05/08 04:32:27;;;;;;;1.90;1.67;;;9.60;99.90;;;;;;5095064;28;20048;-78
2023/05/08 04:34:54;;;;;;;1.38;1.27;;;9.70;99.90;;;;;;5094948;28;20052;-76
2023/05/08 04:37:28;;;;;;;1.67;1.58;;;9.40;99.90;;;;;;5095133;28;20473;-78
2023/05/08 04:39:54;;;;;;;0.73;0.73;;;9.40;99.90;;;;;;5095095;28;20059;-79
2023/05/08 04:42:20;;;;;;;2.10;1.48;;;9.90;99.90;;;;;;5094866;28;20063;-76
2023/05/08 04:44:46;;;;;;;;;;;9.30;99.90;;;;;;5095277;28;20048;-74
2023/05/08 04:47:12;;;;;;;0.65;0.65;;;9.70;99.90;;;;;;5094669;28;19928;-75
2023/05/08 04:49:38;;;;;;;1.13;1.10;;;10.00;99.90;;;;;;5094620;28;20047;-76
2023/05/08 04:52:05;;;;;;;0.57;0.50;;;9.70;99.90;;;;;;5094936;28;20447;-75
2023/05/08 04:54:31;;;;;;;2.20;1.58;;;9.40;99.90;;;;;;5093708;28;20097;-74
2023/05/08 04:56:57;;;;;;;0.73;0.73;;;9.30;99.90;;;;;;5094722;28;20052;-70
2023/05/08 04:59:23;;;;;;;1.05;1.05;;;9.90;99.90;;;;;;5094897;28;20059;-75
2023/05/08 05:01:50;;;;;;;0.77;0.77;;;9.90;99.90;;;;;;5094598;28;20048;-77
2023/05/08 05:04:16;;;;;;;2.22;1.50;;;9.80;99.90;;;;;;5094353;28;20074;-74
2023/05/08 05:06:41;;;;;;;1.20;1.10;;;9.80;99.90;;;;;;5094618;28;20044;-71
2023/05/08 05:09:08;;;;;;;0.93;0.93;;;10.10;99.90;;;;;;5094405;28;20039;-74
2023/05/08 05:11:33;;;;;;;;;;;9.70;99.90;;;;;;5094843;28;20052;-76
2023/05/08 05:13:59;;;;;;;1.80;1.70;;;10.40;99.90;;;;;;5094281;28;19926;-77
2023/05/08 05:16:26;;;;;;;1.77;1.45;;;9.70;99.90;;;;;;5094201;28;20091;-77
2023/05/08 05:18:52;;;;;;;1.10;1.08;;;10.40;99.90;;;;;;5094118;28;20123;-69
2023/05/08 05:21:18;;;;;;;3.03;2.05;;;10.30;99.90;;;;;;5094305;28;20048;-72
2023/05/08 05:23:44;;;;;;;;;;;10.20;99.90;;;;;;5094204;28;20415;-77
2023/05/08 05:26:09;;;;;;;0.68;0.68;;;10.00;99.90;;;;;;5093298;28;19930;-75
2023/05/08 05:28:35;;;;;;;2.10;0.77;;;10.20;99.90;;;;;;5093816;28;20048;-74
2023/05/08 05:31:01;;;;;;;0.77;0.57;;;10.60;99.90;;;;;;5093925;28;20044;-71
2023/05/08 05:33:27;;;;;;;0.73;0.73;;;10.20;99.90;;;;;;5093748;28;20480;-75
2023/05/08 05:35:52;;;;;;;1.33;1.30;;;10.60;99.90;;;;;;5109610;28;20151;-71
2023/05/08 05:38:18;;;;;;;0.90;0.90;;;10.20;99.90;;;;;;5092852;28;20503;-75
2023/05/08 05:40:44;;;;;;;1.95;1.48;;;10.90;99.90;;;;;;5093804;28;20519;-75
2023/05/08 05:43:09;;;;;;;0.77;0.77;;;10.50;99.90;;;;;;5093622;28;20051;-74
2023/05/08 05:45:35;;;;;;;3.10;0.93;;;10.90;99.90;;;;;;5093477;28;20055;-73
2023/05/08 05:48:01;;;;;;;1.20;1.05;;;10.30;99.90;;;;;;5093403;28;20044;-75
2023/05/08 05:50:27;;;;;;;0.90;0.90;;;10.80;99.90;;;;;;5092726;28;20060;-72
2023/05/08 05:52:53;;;;;;;1.10;0.82;;;11.10;99.90;;;;;;5092523;28;20055;-74
2023/05/08 05:55:20;;;;;;;0.95;0.95;;;10.80;99.90;;;;;;5093339;28;20059;-74
2023/05/08 05:57:46;;;;;;;;;;;11.10;99.90;;;;;;5093866;28;20052;-68
2023/05/08 06:00:12;;;;;;;1.35;1.05;;;11.00;99.90;;;;;;5093456;28;19973;-71
2023/05/08 06:02:38;;;;;;;1.40;1.30;;;11.00;99.90;;;;;;5093167;28;20044;-71
2023/05/08 06:05:03;;;;;;;;;;;11.00;99.90;;;;;;5093797;28;20091;-69
2023/05/08 06:07:29;;;;;;;3.30;1.85;;;11.10;99.90;;;;;;5092020;28;19970;-71
2023/05/08 06:09:55;;;;;;;1.25;0.65;;;11.50;99.90;;;;;;5092213;28;20048;-74
2023/05/08 06:12:21;;;;;;;1.50;1.33;;;11.20;99.90;;;;;;5093147;28;20044;-76
2023/05/08 06:14:47;;;;;;;2.17;1.55;;;11.40;99.90;;;;;;5093041;28;20063;-75
2023/05/08 06:17:12;;;;;;;0.77;0.77;;;11.30;99.90;;;;;;5092868;28;20040;-73
2023/05/08 06:19:38;;;;;;;1.25;1.15;;;11.80;99.90;;;;;;5093176;28;20044;-74
2023/05/08 06:22:04;;;;;;;1.55;1.00;;;11.30;99.90;;;;;;5091941;28;20056;-74
2023/05/08 06:24:30;;;;;;;0.80;0.80;;;11.90;99.90;;;;;;5093003;28;20047;-73
2023/05/08 06:26:56;;;;;;;2.63;1.30;;;11.70;99.90;;;;;;5092900;28;20077;-74
2023/05/08 06:29:21;;;;;;;1.38;0.95;;;12.00;99.90;;;;;;5091804;28;20185;-74
2023/05/08 06:31:47;;;;;;;0.98;0.85;;;12.00;99.90;;;;;;5092714;28;20161;-72
2023/05/08 06:34:13;;;;;;;0.47;0.47;;;12.20;99.90;;;;;;5092767;28;20400;-71
2023/05/08 06:36:38;;;;;;;2.97;1.42;;;12.10;99.90;;;;;;5092674;28;20040;-74
2023/05/08 06:39:07;;;;;;;0.93;0.93;;;12.40;99.90;;;;;;5092715;28;20083;-74
2023/05/08 06:41:33;;;;;;;0.68;0.68;;;12.70;99.90;;;;;;5092654;28;20101;-72
2023/05/08 06:43:59;;;;;;;2.17;1.33;;;12.40;99.90;;;;;;5092520;28;20048;-72
2023/05/08 06:46:25;;;;;;;1.13;1.02;;;12.80;99.90;;;;;;5092364;28;20048;-73
2023/05/08 06:48:50;;;;;;;2.80;1.75;;;12.50;99.90;;;;;;5092649;28;20044;-73
2023/05/08 06:51:16;;;;;;;3.10;1.15;;;12.70;99.90;;;;;;5092633;28;20511;-74
2023/05/08 06:53:42;;;;;;;1.08;0.88;;;12.40;99.90;;;;;;5092748;28;20109;-74
2023/05/08 07:02:39;;;;;;;7.35;1.45;;;12.20;99.90;;;;;;5099516;27;21347;-74
2023/05/08 07:05:06;;;;;;;1.17;1.08;;;12.20;99.90;;;;;;5107987;28;20083;-74
2023/05/08 07:07:31;;;;;;;12.57;1.67;;;12.60;99.90;;;;;;5109315;28;20127;-73
2023/05/08 07:09:57;;;;;;;0.73;0.73;;;12.40;99.90;;;;;;5108720;28;20201;-76
2023/05/08 07:12:23;;;;;;;1.02;0.93;;;12.80;99.90;;;;;;5108288;28;20050;-75
2023/05/08 07:14:49;;;;;;;1.45;1.17;;;12.50;99.90;;;;;;5090945;28;20047;-76
2023/05/08 07:17:14;;;;;;;;;;;12.30;99.90;;;;;;5108804;28;20043;-74
2023/05/08 07:19:40;;;;;;;1.50;1.35;;;12.00;99.90;;;;;;5107378;28;20299;-76
2023/05/08 07:22:06;;;;;;;2.40;1.70;;;12.60;99.90;;;;;;5108656;28;20047;-79
2023/05/08 07:24:32;;;;;;;1.58;1.48;;;12.50;99.90;;;;;;5108773;28;20052;-73
2023/05/08 07:26:58;;;;;;;1.58;1.15;;;12.30;99.90;;;;;;5109060;28;20059;-74
2023/05/08 07:29:27;;;;;;;2.47;1.13;;;12.40;99.90;;;;;;5108078;28;20476;-69
2023/05/08 07:31:53;;;;;;;2.38;2.13;;;12.90;99.90;;;;;;5107996;28;20039;-72
2023/05/08 07:34:19;;;;;;;1.20;0.77;;;12.50;99.90;;;;;;5108882;28;20069;-73
2023/05/08 07:36:45;;;;;;;3.25;1.40;;;12.90;99.90;;;;;;5108916;28;20511;-71
2023/05/08 07:39:11;;;;;;;;;;;13.00;99.90;;;;;;5107904;28;20742;-73
2023/05/08 07:41:37;;;;;;;0.60;0.60;;;12.70;99.90;;;;;;5107629;28;19974;-71
2023/05/08 07:44:03;;;;;;;1.90;1.08;;;13.10;99.90;;;;;;5107510;28;20101;-72
2023/05/08 07:46:29;;;;;;;1.20;1.10;;;13.00;99.90;;;;;;5108169;28;20060;-73
2023/05/08 07:48:55;;;;;;;0.95;0.95;;;13.00;99.90;;;;;;5108252;28;20101;-71
2023/05/08 07:51:21;;;;;;;1.27;1.00;;;13.20;99.90;;;;;;5107314;28;20373;-72
2023/05/08 07:53:47;;;;;;;2.97;1.02;;;13.30;99.90;;;;;;5106929;28;20051;-71
2023/05/08 07:56:13;;;;;;;1.25;1.15;;;13.70;99.90;;;;;;5107455;28;20098;-73
2023/05/08 07:58:39;;;;;;;1.30;1.20;;;13.50;99.90;;;;;;5108663;28;20087;-70
2023/05/08 08:01:04;;;;;;;;;;;13.70;99.90;;;;;;5108523;28;20074;-70
2023/05/08 08:03:30;;;;;;;0.77;0.77;;;13.70;99.90;;;;;;5098912;28;19939;-78
2023/05/08 08:05:56;;;;;;;1.85;1.25;;;14.30;99.90;;;;;;5106785;28;20060;-76
2023/05/08 08:08:22;;;;;;;2.95;1.13;;;14.50;99.90;;;;;;5106527;28;20087;-75
2023/05/08 08:10:48;;;;;;;1.48;1.38;;;14.40;99.90;;;;;;5106870;28;20056;-69
2023/05/08 08:13:14;;;;;;;1.40;1.30;;;14.40;99.90;;;;;;5098897;28;20539;-73
2023/05/08 08:15:40;;;;;;;1.20;1.20;;;14.60;99.90;;;;;;5094283;28;20174;-71
2023/05/08 08:18:06;;;;;;;1.13;1.08;;;14.60;99.90;;;;;;5092379;28;20674;-79
2023/05/08 08:20:32;;;;;;;;;;;15.20;99.90;;;;;;5094816;28;20135;-75
2023/05/08 08:22:58;;;;;;;2.53;1.63;;;15.30;99.90;;;;;;5093246;28;20010;-74
2023/05/08 08:25:24;;;;;;;1.13;1.02;;;15.50;99.90;;;;;;5094357;28;20044;-79
2023/05/08 08:27:50;;;;;;;1.45;0.88;;;15.50;99.90;;;;;;5094034;28;20051;-78
2023/05/08 08:30:16;;;;;;;;;;;15.40;99.90;;;;;;5094489;28;20053;-77
2023/05/08 08:32:41;;;;;;;0.90;0.55;;;16.30;99.90;;;;;;5093612;28;19958;-78
2023/05/08 08:35:08;;;;;;;;;;;16.20;99.90;;;;;;5100981;28;20100;-75
2023/05/08 08:37:33;;;;;;;1.30;1.20;;;15.80;99.90;;;;;;5107567;28;19946;-74
2023/05/08 08:39:59;;;;;;;;;;;16.10;99.90;;;;;;5091429;28;20048;-77
2023/05/08 08:42:24;;;;;;;1.95;1.15;;;17.70;99.90;;;;;;5093864;28;20400;-75
2023/05/08 08:44:50;;;;;;;;;;;16.30;99.90;;;;;;5094590;28;20050;-74
2023/05/08 08:47:22;;;;;;;1.60;0.90;;;16.30;99.90;;;;;;5092976;28;19920;-73
2023/05/08 08:49:49;;;;;;;3.22;1.40;;;16.50;99.90;;;;;;5094531;28;20051;-78
2023/05/08 08:52:36;;;;;;;3.38;2.03;;;16.40;99.90;;;;;;5094162;28;20490;-76
2023/05/08 08:55:06;;;;;;;1.13;1.00;;;16.40;99.90;;;;;;5092905;28;20105;-75
2023/05/08 08:57:35;;;;;;;0.80;0.70;;;16.20;99.90;;;;;;5093939;28;20047;-79
2023/05/08 09:00:04;;;;;;;0.75;0.75;;;16.60;99.90;;;;;;5093654;28;20078;-76
2023/05/08 09:02:30;;;;;;;1.35;1.23;;;15.70;99.90;;;;;;5092331;28;20048;-76
2023/05/08 09:04:57;;;;;;;0.73;0.73;;;16.50;99.90;;;;;;5093825;28;20074;-77
2023/05/08 09:07:24;;;;;;;0.50;0.50;;;16.90;99.90;;;;;;5092694;28;20056;-76
2023/05/08 09:09:50;;;;;;;1.58;1.30;;;16.90;99.90;;;;;;5093543;28;20044;-73
2023/05/08 09:12:16;;;;;;;1.33;1.23;;;17.10;99.90;;;;;;5075391;28;20040;-76
2023/05/08 09:14:42;;;;;;;0.68;0.68;;;16.90;99.90;;;;;;5093395;28;20453;-73
2023/05/08 09:17:08;;;;;;;;;;;17.00;99.90;;;;;;5093881;28;20408;-78
2023/05/08 09:19:35;;;;;;;1.08;0.98;;;17.30;99.90;;;;;;5093457;28;19920;-76
2023/05/08 09:22:02;;;;;;;0.68;0.68;;;16.60;99.90;;;;;;5093293;28;20032;-77
2023/05/08 09:24:57;;;;;;;2.58;1.20;;;17.00;99.90;;;;;;5091071;28;20519;-76
2023/05/08 09:27:26;;;;;;;1.30;0.95;;;16.90;99.90;;;;;;5093343;28;20509;-77
2023/05/08 09:30:09;;;;;;;1.23;1.13;;;17.00;99.90;;;;;;5093237;28;20097;-77
2023/05/08 09:32:39;;;;;;;0.82;0.77;;;17.00;99.90;;;;;;5075302;28;20046;-74
2023/05/08 09:35:07;;;;;;;1.17;1.17;;;17.50;99.90;;;;;;5093183;28;20091;-77
2023/05/08 09:37:32;;;;;;;2.15;1.48;;;17.10;99.90;;;;;;5092904;28;20134;-76
2023/05/08 09:40:18;;;;;;;0.85;0.85;;;17.60;99.90;;;;;;5091627;28;20132;-77
2023/05/08 09:42:45;;;;;;;1.13;0.93;;;17.30;99.90;;;;;;5091770;28;20488;-78
2023/05/08 09:45:24;;;;;;;1.23;1.05;;;17.70;99.90;;;;;;5091393;28;20048;-78
2023/05/08 09:47:50;;;;;;;1.38;1.27;;;17.80;99.90;;;;;;5091750;28;20097;-76
2023/05/08 09:50:16;;;;;;;1.25;1.15;;;17.70;99.90;;;;;;5072352;28;20047;-73
2023/05/08 09:52:46;;;;;;;0.80;0.80;;;17.60;99.90;;;;;;5108059;28;20139;-76
2023/05/08 09:55:11;;;;;;;0.88;0.88;;;17.50;99.90;;;;;;5091078;28;20691;-76
2023/05/08 09:57:39;;;;;;;1.55;1.00;;;17.40;99.90;;;;;;5087547;28;20044;-73
2023/05/08 10:00:07;;;;;;;2.45;2.25;;;17.80;99.90;;;;;;5091050;28;20050;-77
2023/05/08 10:02:35;;;;;;;2.20;1.88;;;17.80;99.90;;;;;;5091835;28;20143;-77
2023/05/08 10:05:01;;;;;;;0.80;0.75;;;17.70;99.90;;;;;;5090581;28;20135;-76
2023/05/08 10:07:29;;;;;;;1.55;1.30;;;17.70;99.90;;;;;;5091269;28;20089;-77
2023/05/08 10:10:02;;;;;;;0.88;0.75;;;17.80;99.90;;;;;;5092273;28;20113;-76
2023/05/08 10:12:29;;;;;;;0.65;0.50;;;18.00;99.90;;;;;;5091612;28;20082;-77
2023/05/08 10:14:55;;;;;;;1.20;1.10;;;18.50;99.90;;;;;;5090877;28;20044;-76
2023/05/08 10:17:45;;;;;;;1.52;1.10;;;18.70;99.90;;;;;;5092298;28;20052;-77
2023/05/08 10:20:13;;;;;;;2.33;0.90;;;18.40;99.90;;;;;;5091350;28;20101;-76
2023/05/08 10:22:42;;;;;;;0.88;0.88;;;18.70;99.90;;;;;;5092034;28;20040;-76
2023/05/08 10:25:15;;;;;;;0.45;0.45;;;18.60;99.90;;;;;;5091969;28;20456;-76
2023/05/08 10:27:57;;;;;;;0.75;0.75;;;18.90;99.90;;;;;;5091496;28;20055;-77
2023/05/08 10:30:24;;;;;;;0.73;0.63;;;19.60;99.90;;;;;;5092124;28;20054;-74
2023/05/08 10:32:54;;;;;;;1.60;1.05;;;19.20;99.90;;;;;;5090820;28;20051;-76
2023/05/08 10:35:21;;;;;;;2.13;1.45;;;19.20;99.90;;;;;;5087081;28;20492;-76
2023/05/08 10:37:47;;;;;;;0.40;0.40;;;19.20;99.90;;;;;;5091422;28;20044;-74
2023/05/08 10:40:17;;;;;;;0.80;0.80;;;19.30;99.90;;;;;;5090585;28;20140;-78
2023/05/08 10:42:44;;;;;;;0.98;0.93;;;19.20;99.90;;;;;;5092285;28;20036;-78
2023/05/08 10:45:10;;;;;;;1.25;1.20;;;19.90;99.90;;;;;;5092091;28;20051;-78
2023/05/08 10:47:58;;;;;;;2.45;0.90;;;19.70;99.90;;;;;;5072676;28;20091;-76
2023/05/08 10:50:43;;;;;;;0.90;0.88;;;19.90;99.90;;;;;;5089383;28;20131;-76
2023/05/08 10:53:12;;;;;;;2.45;1.30;;;19.60;99.90;;;;;;5091866;28;20704;-75
2023/05/08 10:55:41;;;;;;;1.63;0.88;;;20.20;99.90;;;;;;5091117;28;20054;-75
2023/05/08 10:58:27;;;;;;;1.77;1.33;;;20.30;99.90;;;;;;5091458;28;20557;-76
2023/05/08 11:00:52;;;;;;;2.08;1.00;;;20.00;99.90;;;;;;5091014;28;20504;-77
2023/05/08 11:03:20;;;;;;;1.02;0.50;;;20.20;99.90;;;;;;5073086;28;20102;-77
2023/05/08 11:05:47;;;;;;;0.50;0.50;;;20.50;99.90;;;;;;5091500;28;20048;-76
2023/05/08 11:08:15;;;;;;;3.38;1.00;;;20.50;99.90;;;;;;5090417;28;20148;-78
2023/05/08 11:10:43;;;;;;;2.67;1.90;;;20.10;99.90;;;;;;5091069;28;20052;-74
2023/05/08 11:13:11;;;;;;;1.48;1.35;;;20.30;99.90;;;;;;5091978;28;20393;-74
2023/05/08 11:15:39;;;;;;;2.22;2.03;;;20.40;99.90;;;;;;5090177;28;20056;-79
2023/05/08 11:18:10;;;;;;;1.38;0.80;;;20.90;99.90;;;;;;5089666;28;20058;-76
2023/05/08 11:20:40;;;;;;;1.38;1.27;;;20.90;99.90;;;;;;5089381;28;20480;-73
2023/05/08 11:23:22;;;;;;;2.25;1.25;;;20.60;99.90;;;;;;5091495;28;20044;-78
2023/05/08 11:25:57;;;;;;;0.65;0.65;;;21.20;99.90;;;;;;5091265;28;20076;-79
2023/05/08 11:28:22;;;;;;;0.73;0.73;;;20.70;99.90;;;;;;5091696;28;20047;-78
2023/05/08 11:30:53;;;;;;;0.77;0.77;;;20.70;99.90;;;;;;5090338;28;20051;-76
2023/05/08 11:33:19;;;;;;;0.75;0.75;;;21.20;99.90;;;;;;5091591;28;20044;-74
2023/05/08 11:35:48;;;;;;;0.50;0.50;;;21.30;99.90;;;;;;5090408;28;20048;-79
2023/05/08 11:38:20;;;;;;;1.25;1.08;;;21.50;99.90;;;;;;5091412;28;20040;-79
2023/05/08 11:40:59;;;;;;;0.60;0.60;;;22.00;99.90;;;;;;5090486;28;20067;-73
2023/05/08 11:43:31;;;;;;;1.23;0.73;;;21.60;99.90;;;;;;5091257;28;20582;-75
2023/05/08 11:46:20;;;;;;;1.35;1.25;;;21.40;99.90;;;;;;5091500;28;20182;-78
2023/05/08 11:48:46;;;;;;;1.42;1.33;;;21.10;99.90;;;;;;5092885;28;20123;-74
2023/05/08 11:51:12;;;;;;;1.45;1.27;;;21.40;99.90;;;;;;5094027;28;20452;-79
2023/05/08 11:53:39;;;;;;;1.05;1.02;;;21.80;99.90;;;;;;5093779;28;20052;-77
2023/05/08 11:56:05;;;;;;;0.70;0.70;;;21.50;99.90;;;;;;5094388;28;20434;-76
2023/05/08 11:58:30;;;;;;;1.40;1.30;;;21.50;99.90;;;;;;5095116;28;20058;-76
2023/05/08 12:00:56;;;;;;;0.93;0.82;;;21.90;99.90;;;;;;5093542;28;20052;-77
2023/05/08 12:03:26;;;;;;;1.08;0.98;;;21.90;99.90;;;;;;5094759;28;20062;-71
2023/05/08 12:05:55;;;;;;;1.38;0.98;;;22.00;99.90;;;;;;5095093;28;20052;-75
2023/05/08 12:08:21;;;;;;;0.60;0.60;;;22.00;99.90;;;;;;5094939;28;20048;-75
2023/05/08 12:10:55;;;;;;;1.17;1.08;;;22.70;99.90;;;;;;5094855;28;20502;-76
2023/05/08 12:13:26;;;;;;;0.90;0.80;;;22.50;99.90;;;;;;5093593;28;20059;-78
2023/05/08 12:15:59;;;;;;;0.77;0.70;;;22.40;99.90;;;;;;5094570;28;20058;-72
2023/05/08 12:18:27;;;;;;;0.70;0.70;;;22.50;99.90;;;;;;5094871;28;20066;-76
2023/05/08 12:20:55;;;;;;;0.82;0.57;;;22.90;99.90;;;;;;5093576;28;20177;-77
2023/05/08 12:23:23;;;;;;;0.55;0.50;;;22.70;99.90;;;;;;5094598;28;20058;-77
2023/05/08 12:25:53;;;;;;;0.52;0.52;;;22.80;99.90;;;;;;5094490;28;20373;-76
2023/05/08 12:28:19;;;;;;;1.60;1.02;;;22.30;99.90;;;;;;5093374;28;20056;-77
2023/05/08 12:30:45;;;;;;;1.05;0.90;;;22.10;99.90;;;;;;5093056;28;20124;-77
2023/05/08 12:33:11;;;;;;;1.15;0.73;;;21.80;99.90;;;;;;5093304;28;20052;-77
2023/05/08 12:35:38;;;;;;;0.80;0.75;;;21.90;99.90;;;;;;5093262;28;20040;-76
2023/05/08 12:38:08;;;;;;;1.08;0.98;;;21.60;99.90;;;;;;5094680;28;20467;-75
2023/05/08 12:40:42;;;;;;;0.75;0.75;;;22.30;99.90;;;;;;5076415;28;20416;-78
2023/05/08 12:43:08;;;;;;;0.43;0.43;;;22.30;99.90;;;;;;5093063;28;20052;-77
2023/05/08 12:45:40;;;;;;;0.68;0.68;;;22.40;99.90;;;;;;5093374;28;20048;-77
2023/05/08 12:48:11;;;;;;;1.98;1.63;;;22.90;99.90;;;;;;5093211;28;20052;-78
2023/05/08 12:50:42;;;;;;;1.08;0.70;;;22.90;99.90;;;;;;5092778;28;20055;-75
2023/05/08 12:53:14;;;;;;;0.63;0.63;;;22.60;99.90;;;;;;5094043;28;20429;-77
2023/05/08 12:55:53;;;;;;;1.15;1.05;;;22.50;99.90;;;;;;5091002;28;20044;-77
2023/05/08 12:58:19;;;;;;;1.13;1.02;;;22.50;99.90;;;;;;5084176;28;20075;-78
2023/05/08 13:00:48;;;;;;;1.13;1.02;;;22.30;99.90;;;;;;5091034;28;20542;-78
2023/05/08 13:03:25;;;;;;;0.38;0.38;;;22.00;99.90;;;;;;5091935;28;20050;-79
2023/05/08 13:05:53;;;;;;;0.68;0.68;;;22.00;99.90;;;;;;5093720;28;20044;-78
2023/05/08 13:08:19;;;;;;;1.05;1.00;;;22.00;99.90;;;;;;5093504;28;20563;-77
2023/05/08 13:10:53;;;;;;;0.70;0.70;;;21.80;99.90;;;;;;5083905;28;20051;-79